sensor_id;sensor_type;location;lat;lon;timestamp;P1;durP1;ratioP1;P2;durP2;ratioP2
11313;SDS011;5712;48.858;9.206;2022-10-15T00:00:45;0.97;;;0.90;;
11313;SDS011;5712;48.858;9.206;2022-10-15T00:03:11;1.10;;;1.00;;
11313;SDS011;5712;48.858;9.206;2022-10-15T00:05:38;1.10;;;0.90;;
11313;SDS011;5712;48.858;9.206;2022-10-15T00:08:06;1.20;;;1.00;;
11313;SDS011;5712;48.858;9.206;2022-10-15T00:10:34;1.77;;;1.00;;
11313;SDS011;5712;48.858;9.206;2022-10-15T00:13:02;1.00;;;0.80;;
11313;SDS011;5712;48.858;9.206;2022-10-15T00:15:30;1.10;;;1.00;;
11313;SDS011;5712;48.858;9.206;2022-10-15T00:17:57;1.43;;;0.90;;
11313;SDS011;5712;48.858;9.206;2022-10-15T00:20:23;0.70;;;0.70;;
11313;SDS011;5712;48.858;9.206;2022-10-15T00:22:50;1.00;;;0.80;;
11313;SDS011;5712;48.858;9.206;2022-10-15T00:25:17;0.90;;;0.70;;
11313;SDS011;5712;48.858;9.206;2022-10-15T00:27:43;1.63;;;0.80;;
11313;SDS011;5712;48.858;9.206;2022-10-15T00:30:10;1.13;;;0.80;;
11313;SDS011;5712;48.858;9.206;2022-10-15T00:32:39;0.80;;;0.70;;
11313;SDS011;5712;48.858;9.206;2022-10-15T00:35:06;1.43;;;0.70;;
11313;SDS011;5712;48.858;9.206;2022-10-15T00:37:33;0.90;;;0.70;;
11313;SDS011;5712;48.858;9.206;2022-10-15T00:40:00;0.70;;;0.67;;
11313;SDS011;5712;48.858;9.206;2022-10-15T00:42:26;2.57;;;0.63;;
11313;SDS011;5712;48.858;9.206;2022-10-15T00:44:54;1.23;;;0.70;;
11313;SDS011;5712;48.858;9.206;2022-10-15T00:47:23;2.70;;;0.53;;
11313;SDS011;5712;48.858;9.206;2022-10-15T00:49:58;0.73;;;0.73;;
11313;SDS011;5712;48.858;9.206;2022-10-15T00:52:33;0.50;;;0.50;;
11313;SDS011;5712;48.858;9.206;2022-10-15T00:55:06;0.50;;;0.43;;
11313;SDS011;5712;48.858;9.206;2022-10-15T00:57:36;0.80;;;0.80;;
11313;SDS011;5712;48.858;9.206;2022-10-15T01:00:05;0.73;;;0.73;;
11313;SDS011;5712;48.858;9.206;2022-10-15T01:02:34;0.50;;;0.47;;
11313;SDS011;5712;48.858;9.206;2022-10-15T01:05:02;1.23;;;0.50;;
11313;SDS011;5712;48.858;9.206;2022-10-15T01:07:29;0.60;;;0.60;;
11313;SDS011;5712;48.858;9.206;2022-10-15T01:09:56;0.50;;;0.50;;
11313;SDS011;5712;48.858;9.206;2022-10-15T01:12:25;0.70;;;0.60;;
11313;SDS011;5712;48.858;9.206;2022-10-15T01:15:01;1.50;;;0.60;;
11313;SDS011;5712;48.858;9.206;2022-10-15T01:17:35;1.00;;;0.60;;
11313;SDS011;5712;48.858;9.206;2022-10-15T01:26:37;1.13;;;0.60;;
11313;SDS011;5712;48.858;9.206;2022-10-15T01:29:23;0.50;;;0.43;;
11313;SDS011;5712;48.858;9.206;2022-10-15T01:32:06;0.73;;;0.50;;
11313;SDS011;5712;48.858;9.206;2022-10-15T01:34:39;0.83;;;0.60;;
11313;SDS011;5712;48.858;9.206;2022-10-15T01:37:12;0.50;;;0.50;;
11313;SDS011;5712;48.858;9.206;2022-10-15T01:39:45;0.37;;;0.37;;
11313;SDS011;5712;48.858;9.206;2022-10-15T01:42:18;0.93;;;0.40;;
11313;SDS011;5712;48.858;9.206;2022-10-15T01:44:52;1.73;;;0.57;;
11313;SDS011;5712;48.858;9.206;2022-10-15T01:47:26;0.67;;;0.60;;
11313;SDS011;5712;48.858;9.206;2022-10-15T01:49:58;0.40;;;0.40;;
11313;SDS011;5712;48.858;9.206;2022-10-15T01:52:28;0.57;;;0.40;;
11313;SDS011;5712;48.858;9.206;2022-10-15T01:54:57;0.60;;;0.60;;
11313;SDS011;5712;48.858;9.206;2022-10-15T01:57:26;1.20;;;0.40;;
11313;SDS011;5712;48.858;9.206;2022-10-15T01:59:55;1.30;;;0.40;;
11313;SDS011;5712;48.858;9.206;2022-10-15T02:02:22;1.27;;;0.47;;
11313;SDS011;5712;48.858;9.206;2022-10-15T02:04:50;1.40;;;0.50;;
11313;SDS011;5712;48.858;9.206;2022-10-15T02:07:18;1.30;;;0.67;;
11313;SDS011;5712;48.858;9.206;2022-10-15T02:09:56;0.70;;;0.40;;
11313;SDS011;5712;48.858;9.206;2022-10-15T02:12:34;1.57;;;0.50;;
11313;SDS011;5712;48.858;9.206;2022-10-15T02:15:16;1.53;;;0.40;;
11313;SDS011;5712;48.858;9.206;2022-10-15T02:17:44;1.43;;;0.40;;
11313;SDS011;5712;48.858;9.206;2022-10-15T02:20:22;2.27;;;0.50;;
11313;SDS011;5712;48.858;9.206;2022-10-15T02:22:54;3.53;;;0.53;;
11313;SDS011;5712;48.858;9.206;2022-10-15T02:25:24;0.87;;;0.50;;
11313;SDS011;5712;48.858;9.206;2022-10-15T02:27:53;1.80;;;0.40;;
11313;SDS011;5712;48.858;9.206;2022-10-15T02:30:22;0.57;;;0.50;;
11313;SDS011;5712;48.858;9.206;2022-10-15T02:32:51;0.40;;;0.40;;
11313;SDS011;5712;48.858;9.206;2022-10-15T02:35:23;0.30;;;0.30;;
11313;SDS011;5712;48.858;9.206;2022-10-15T02:37:52;0.30;;;0.30;;
11313;SDS011;5712;48.858;9.206;2022-10-15T02:40:23;1.20;;;0.40;;
11313;SDS011;5712;48.858;9.206;2022-10-15T02:42:53;0.80;;;0.50;;
11313;SDS011;5712;48.858;9.206;2022-10-15T02:45:20;0.40;;;0.40;;
11313;SDS011;5712;48.858;9.206;2022-10-15T02:47:47;0.50;;;0.50;;
11313;SDS011;5712;48.858;9.206;2022-10-15T02:50:14;0.40;;;0.40;;
11313;SDS011;5712;48.858;9.206;2022-10-15T02:52:42;0.30;;;0.30;;
11313;SDS011;5712;48.858;9.206;2022-10-15T02:55:08;0.30;;;0.30;;
11313;SDS011;5712;48.858;9.206;2022-10-15T02:57:35;0.80;;;0.40;;
11313;SDS011;5712;48.858;9.206;2022-10-15T03:00:02;2.00;;;0.57;;
11313;SDS011;5712;48.858;9.206;2022-10-15T03:02:29;0.70;;;0.50;;
11313;SDS011;5712;48.858;9.206;2022-10-15T03:04:56;0.50;;;0.33;;
11313;SDS011;5712;48.858;9.206;2022-10-15T03:07:23;1.33;;;0.60;;
11313;SDS011;5712;48.858;9.206;2022-10-15T03:09:51;0.43;;;0.43;;
11313;SDS011;5712;48.858;9.206;2022-10-15T03:12:18;0.30;;;0.30;;
11313;SDS011;5712;48.858;9.206;2022-10-15T03:14:47;0.23;;;0.23;;
11313;SDS011;5712;48.858;9.206;2022-10-15T03:17:14;0.43;;;0.30;;
11313;SDS011;5712;48.858;9.206;2022-10-15T03:19:41;2.20;;;0.50;;
11313;SDS011;5712;48.858;9.206;2022-10-15T03:22:07;0.47;;;0.30;;
11313;SDS011;5712;48.858;9.206;2022-10-15T03:24:34;1.37;;;0.40;;
11313;SDS011;5712;48.858;9.206;2022-10-15T03:27:02;1.67;;;0.63;;
11313;SDS011;5712;48.858;9.206;2022-10-15T03:29:29;0.40;;;0.40;;
11313;SDS011;5712;48.858;9.206;2022-10-15T03:31:55;0.50;;;0.40;;
11313;SDS011;5712;48.858;9.206;2022-10-15T03:34:22;0.50;;;0.50;;
11313;SDS011;5712;48.858;9.206;2022-10-15T03:36:49;0.70;;;0.33;;
11313;SDS011;5712;48.858;9.206;2022-10-15T03:39:15;1.77;;;0.40;;
11313;SDS011;5712;48.858;9.206;2022-10-15T03:41:42;0.40;;;0.40;;
11313;SDS011;5712;48.858;9.206;2022-10-15T03:44:10;0.50;;;0.30;;
11313;SDS011;5712;48.858;9.206;2022-10-15T03:46:37;0.50;;;0.40;;
11313;SDS011;5712;48.858;9.206;2022-10-15T03:49:03;0.97;;;0.40;;
11313;SDS011;5712;48.858;9.206;2022-10-15T03:51:30;0.40;;;0.40;;
11313;SDS011;5712;48.858;9.206;2022-10-15T03:53:57;1.37;;;0.50;;
11313;SDS011;5712;48.858;9.206;2022-10-15T03:56:23;0.40;;;0.30;;
11313;SDS011;5712;48.858;9.206;2022-10-15T03:58:50;0.30;;;0.30;;
11313;SDS011;5712;48.858;9.206;2022-10-15T04:01:18;0.30;;;0.30;;
11313;SDS011;5712;48.858;9.206;2022-10-15T04:03:45;1.63;;;0.50;;
11313;SDS011;5712;48.858;9.206;2022-10-15T04:06:12;0.53;;;0.30;;
11313;SDS011;5712;48.858;9.206;2022-10-15T04:08:38;2.00;;;0.40;;
11313;SDS011;5712;48.858;9.206;2022-10-15T04:11:05;1.27;;;0.60;;
11313;SDS011;5712;48.858;9.206;2022-10-15T04:13:32;5.80;;;0.60;;
11313;SDS011;5712;48.858;9.206;2022-10-15T04:15:58;0.83;;;0.50;;
11313;SDS011;5712;48.858;9.206;2022-10-15T04:18:26;2.03;;;0.47;;
11313;SDS011;5712;48.858;9.206;2022-10-15T04:20:53;1.53;;;0.50;;
11313;SDS011;5712;48.858;9.206;2022-10-15T04:23:23;1.47;;;0.50;;
11313;SDS011;5712;48.858;9.206;2022-10-15T04:25:50;0.60;;;0.40;;
11313;SDS011;5712;48.858;9.206;2022-10-15T04:28:16;0.30;;;0.30;;
11313;SDS011;5712;48.858;9.206;2022-10-15T04:30:43;0.40;;;0.40;;
11313;SDS011;5712;48.858;9.206;2022-10-15T04:33:10;0.77;;;0.40;;
11313;SDS011;5712;48.858;9.206;2022-10-15T04:35:38;0.43;;;0.30;;
11313;SDS011;5712;48.858;9.206;2022-10-15T04:38:04;0.40;;;0.30;;
11313;SDS011;5712;48.858;9.206;2022-10-15T04:40:31;0.53;;;0.40;;
11313;SDS011;5712;48.858;9.206;2022-10-15T04:42:57;1.10;;;0.40;;
11313;SDS011;5712;48.858;9.206;2022-10-15T04:45:24;0.60;;;0.47;;
11313;SDS011;5712;48.858;9.206;2022-10-15T04:47:51;0.30;;;0.30;;
11313;SDS011;5712;48.858;9.206;2022-10-15T04:50:17;0.33;;;0.33;;
11313;SDS011;5712;48.858;9.206;2022-10-15T04:52:45;0.33;;;0.33;;
11313;SDS011;5712;48.858;9.206;2022-10-15T04:55:12;0.83;;;0.50;;
11313;SDS011;5712;48.858;9.206;2022-10-15T04:57:39;1.37;;;0.50;;
11313;SDS011;5712;48.858;9.206;2022-10-15T05:00:06;1.10;;;0.30;;
11313;SDS011;5712;48.858;9.206;2022-10-15T05:02:33;0.30;;;0.30;;
11313;SDS011;5712;48.858;9.206;2022-10-15T05:05:00;0.50;;;0.40;;
11313;SDS011;5712;48.858;9.206;2022-10-15T05:07:27;1.50;;;0.40;;
11313;SDS011;5712;48.858;9.206;2022-10-15T05:09:54;0.50;;;0.50;;
11313;SDS011;5712;48.858;9.206;2022-10-15T05:12:21;0.40;;;0.40;;
11313;SDS011;5712;48.858;9.206;2022-10-15T05:14:48;0.67;;;0.67;;
11313;SDS011;5712;48.858;9.206;2022-10-15T05:17:14;0.50;;;0.47;;
11313;SDS011;5712;48.858;9.206;2022-10-15T05:19:41;2.10;;;1.03;;
11313;SDS011;5712;48.858;9.206;2022-10-15T05:22:08;1.40;;;1.30;;
11313;SDS011;5712;48.858;9.206;2022-10-15T05:24:34;0.80;;;0.73;;
11313;SDS011;5712;48.858;9.206;2022-10-15T05:27:02;1.13;;;0.53;;
11313;SDS011;5712;48.858;9.206;2022-10-15T05:29:29;0.80;;;0.50;;
11313;SDS011;5712;48.858;9.206;2022-10-15T05:31:56;0.60;;;0.50;;
11313;SDS011;5712;48.858;9.206;2022-10-15T05:34:22;0.43;;;0.43;;
11313;SDS011;5712;48.858;9.206;2022-10-15T05:36:50;0.50;;;0.40;;
11313;SDS011;5712;48.858;9.206;2022-10-15T05:39:17;0.53;;;0.50;;
11313;SDS011;5712;48.858;9.206;2022-10-15T05:41:44;0.90;;;0.50;;
11313;SDS011;5712;48.858;9.206;2022-10-15T05:44:12;0.50;;;0.50;;
11313;SDS011;5712;48.858;9.206;2022-10-15T05:46:39;0.50;;;0.50;;
11313;SDS011;5712;48.858;9.206;2022-10-15T05:49:05;0.67;;;0.60;;
11313;SDS011;5712;48.858;9.206;2022-10-15T05:51:32;0.83;;;0.80;;
11313;SDS011;5712;48.858;9.206;2022-10-15T05:53:59;1.70;;;0.80;;
11313;SDS011;5712;48.858;9.206;2022-10-15T05:56:25;0.90;;;0.60;;
11313;SDS011;5712;48.858;9.206;2022-10-15T05:58:52;0.87;;;0.77;;
11313;SDS011;5712;48.858;9.206;2022-10-15T06:01:20;2.27;;;0.70;;
11313;SDS011;5712;48.858;9.206;2022-10-15T06:03:47;0.80;;;0.70;;
11313;SDS011;5712;48.858;9.206;2022-10-15T06:06:15;0.97;;;0.70;;
11313;SDS011;5712;48.858;9.206;2022-10-15T06:08:43;3.37;;;0.67;;
11313;SDS011;5712;48.858;9.206;2022-10-15T06:11:10;1.23;;;0.70;;
11313;SDS011;5712;48.858;9.206;2022-10-15T06:13:37;0.63;;;0.50;;
11313;SDS011;5712;48.858;9.206;2022-10-15T06:16:04;1.07;;;0.73;;
11313;SDS011;5712;48.858;9.206;2022-10-15T06:18:33;0.67;;;0.57;;
11313;SDS011;5712;48.858;9.206;2022-10-15T06:21:00;0.73;;;0.60;;
11313;SDS011;5712;48.858;9.206;2022-10-15T06:23:26;0.60;;;0.60;;
11313;SDS011;5712;48.858;9.206;2022-10-15T06:25:53;0.80;;;0.63;;
11313;SDS011;5712;48.858;9.206;2022-10-15T06:28:19;1.23;;;0.60;;
11313;SDS011;5712;48.858;9.206;2022-10-15T06:30:46;1.37;;;0.70;;
11313;SDS011;5712;48.858;9.206;2022-10-15T06:33:13;1.37;;;0.60;;
11313;SDS011;5712;48.858;9.206;2022-10-15T06:35:42;0.80;;;0.70;;
11313;SDS011;5712;48.858;9.206;2022-10-15T06:38:09;0.80;;;0.60;;
11313;SDS011;5712;48.858;9.206;2022-10-15T06:40:36;1.20;;;0.83;;
11313;SDS011;5712;48.858;9.206;2022-10-15T06:43:03;0.77;;;0.60;;
11313;SDS011;5712;48.858;9.206;2022-10-15T06:45:32;1.27;;;0.70;;
11313;SDS011;5712;48.858;9.206;2022-10-15T06:48:00;1.90;;;0.80;;
11313;SDS011;5712;48.858;9.206;2022-10-15T06:50:28;0.80;;;0.77;;
11313;SDS011;5712;48.858;9.206;2022-10-15T06:52:56;0.70;;;0.70;;
11313;SDS011;5712;48.858;9.206;2022-10-15T06:55:23;2.47;;;0.80;;
11313;SDS011;5712;48.858;9.206;2022-10-15T06:57:50;1.63;;;1.00;;
11313;SDS011;5712;48.858;9.206;2022-10-15T07:00:16;0.77;;;0.73;;
11313;SDS011;5712;48.858;9.206;2022-10-15T07:02:43;0.87;;;0.80;;
11313;SDS011;5712;48.858;9.206;2022-10-15T07:05:09;0.70;;;0.70;;
11313;SDS011;5712;48.858;9.206;2022-10-15T07:07:36;1.33;;;0.90;;
11313;SDS011;5712;48.858;9.206;2022-10-15T07:10:04;0.80;;;0.70;;
11313;SDS011;5712;48.858;9.206;2022-10-15T07:12:31;0.70;;;0.70;;
11313;SDS011;5712;48.858;9.206;2022-10-15T07:14:58;0.73;;;0.73;;
11313;SDS011;5712;48.858;9.206;2022-10-15T07:17:25;1.07;;;0.70;;
11313;SDS011;5712;48.858;9.206;2022-10-15T07:19:51;0.80;;;0.80;;
11313;SDS011;5712;48.858;9.206;2022-10-15T07:22:18;1.30;;;1.00;;
11313;SDS011;5712;48.858;9.206;2022-10-15T07:24:45;2.50;;;0.80;;
11313;SDS011;5712;48.858;9.206;2022-10-15T07:27:13;1.17;;;0.67;;
11313;SDS011;5712;48.858;9.206;2022-10-15T07:29:39;2.00;;;1.00;;
11313;SDS011;5712;48.858;9.206;2022-10-15T07:32:06;0.93;;;0.83;;
11313;SDS011;5712;48.858;9.206;2022-10-15T07:34:32;1.10;;;1.00;;
11313;SDS011;5712;48.858;9.206;2022-10-15T07:36:59;1.00;;;0.90;;
11313;SDS011;5712;48.858;9.206;2022-10-15T07:39:26;1.03;;;0.80;;
11313;SDS011;5712;48.858;9.206;2022-10-15T07:41:52;1.40;;;0.90;;
11313;SDS011;5712;48.858;9.206;2022-10-15T07:44:20;0.73;;;0.73;;
11313;SDS011;5712;48.858;9.206;2022-10-15T07:46:47;3.63;;;0.80;;
11313;SDS011;5712;48.858;9.206;2022-10-15T07:49:13;1.20;;;0.87;;
11313;SDS011;5712;48.858;9.206;2022-10-15T07:51:41;1.10;;;0.90;;
11313;SDS011;5712;48.858;9.206;2022-10-15T07:54:08;1.20;;;0.90;;
11313;SDS011;5712;48.858;9.206;2022-10-15T07:56:34;1.50;;;0.90;;
11313;SDS011;5712;48.858;9.206;2022-10-15T07:59:01;0.70;;;0.70;;
11313;SDS011;5712;48.858;9.206;2022-10-15T08:01:29;1.00;;;0.90;;
11313;SDS011;5712;48.858;9.206;2022-10-15T08:03:55;2.00;;;0.97;;
11313;SDS011;5712;48.858;9.206;2022-10-15T08:06:22;1.10;;;1.00;;
11313;SDS011;5712;48.858;9.206;2022-10-15T08:08:49;0.70;;;0.70;;
11313;SDS011;5712;48.858;9.206;2022-10-15T08:11:15;1.40;;;0.70;;
11313;SDS011;5712;48.858;9.206;2022-10-15T08:13:42;1.37;;;0.80;;
11313;SDS011;5712;48.858;9.206;2022-10-15T08:16:11;1.97;;;1.03;;
11313;SDS011;5712;48.858;9.206;2022-10-15T08:18:41;1.03;;;0.97;;
11313;SDS011;5712;48.858;9.206;2022-10-15T08:21:09;2.37;;;0.87;;
11313;SDS011;5712;48.858;9.206;2022-10-15T08:23:36;1.50;;;0.80;;
11313;SDS011;5712;48.858;9.206;2022-10-15T08:26:03;1.93;;;0.80;;
11313;SDS011;5712;48.858;9.206;2022-10-15T08:28:30;1.43;;;0.90;;
11313;SDS011;5712;48.858;9.206;2022-10-15T08:30:58;1.20;;;0.87;;
11313;SDS011;5712;48.858;9.206;2022-10-15T08:33:26;0.80;;;0.80;;
11313;SDS011;5712;48.858;9.206;2022-10-15T08:35:54;1.33;;;0.97;;
11313;SDS011;5712;48.858;9.206;2022-10-15T08:38:21;0.73;;;0.73;;
11313;SDS011;5712;48.858;9.206;2022-10-15T08:40:49;1.63;;;0.80;;
11313;SDS011;5712;48.858;9.206;2022-10-15T08:43:21;0.77;;;0.70;;
11313;SDS011;5712;48.858;9.206;2022-10-15T08:45:51;1.30;;;0.80;;
11313;SDS011;5712;48.858;9.206;2022-10-15T08:48:24;1.00;;;0.90;;
11313;SDS011;5712;48.858;9.206;2022-10-15T08:50:58;1.10;;;1.00;;
11313;SDS011;5712;48.858;9.206;2022-10-15T08:53:27;1.00;;;0.90;;
11313;SDS011;5712;48.858;9.206;2022-10-15T08:55:56;1.10;;;1.00;;
11313;SDS011;5712;48.858;9.206;2022-10-15T08:58:30;3.50;;;1.03;;
11313;SDS011;5712;48.858;9.206;2022-10-15T09:01:09;0.87;;;0.87;;
11313;SDS011;5712;48.858;9.206;2022-10-15T09:03:43;3.23;;;1.20;;
11313;SDS011;5712;48.858;9.206;2022-10-15T09:06:20;1.33;;;0.90;;
11313;SDS011;5712;48.858;9.206;2022-10-15T09:08:52;1.70;;;0.90;;
11313;SDS011;5712;48.858;9.206;2022-10-15T09:11:35;1.40;;;1.00;;
11313;SDS011;5712;48.858;9.206;2022-10-15T09:14:10;0.80;;;0.80;;
11313;SDS011;5712;48.858;9.206;2022-10-15T09:16:40;1.00;;;0.90;;
11313;SDS011;5712;48.858;9.206;2022-10-15T09:19:11;0.93;;;0.90;;
11313;SDS011;5712;48.858;9.206;2022-10-15T09:21:42;0.90;;;0.90;;
11313;SDS011;5712;48.858;9.206;2022-10-15T09:24:10;1.03;;;0.93;;
11313;SDS011;5712;48.858;9.206;2022-10-15T09:26:46;1.10;;;1.00;;
11313;SDS011;5712;48.858;9.206;2022-10-15T09:29:22;1.50;;;1.10;;
11313;SDS011;5712;48.858;9.206;2022-10-15T09:31:56;1.13;;;1.00;;
11313;SDS011;5712;48.858;9.206;2022-10-15T09:34:33;1.30;;;1.00;;
11313;SDS011;5712;48.858;9.206;2022-10-15T09:37:08;2.67;;;1.30;;
11313;SDS011;5712;48.858;9.206;2022-10-15T09:39:53;2.37;;;1.20;;
11313;SDS011;5712;48.858;9.206;2022-10-15T09:42:33;1.20;;;1.10;;
11313;SDS011;5712;48.858;9.206;2022-10-15T09:45:04;1.73;;;1.13;;
11313;SDS011;5712;48.858;9.206;2022-10-15T09:47:35;2.40;;;1.30;;
11313;SDS011;5712;48.858;9.206;2022-10-15T09:50:02;2.43;;;1.73;;
11313;SDS011;5712;48.858;9.206;2022-10-15T09:52:42;2.47;;;1.60;;
11313;SDS011;5712;48.858;9.206;2022-10-15T09:55:25;1.70;;;1.10;;
11313;SDS011;5712;48.858;9.206;2022-10-15T09:58:01;1.30;;;0.93;;
11313;SDS011;5712;48.858;9.206;2022-10-15T10:03:23;1.00;;;0.90;;
11313;SDS011;5712;48.858;9.206;2022-10-15T10:05:53;0.93;;;0.90;;
11313;SDS011;5712;48.858;9.206;2022-10-15T10:08:28;1.83;;;0.90;;
11313;SDS011;5712;48.858;9.206;2022-10-15T10:10:59;1.17;;;1.00;;
11313;SDS011;5712;48.858;9.206;2022-10-15T10:13:29;0.87;;;0.83;;
11313;SDS011;5712;48.858;9.206;2022-10-15T10:16:00;0.80;;;0.80;;
11313;SDS011;5712;48.858;9.206;2022-10-15T10:18:29;1.27;;;0.80;;
11313;SDS011;5712;48.858;9.206;2022-10-15T10:20:58;0.87;;;0.73;;
11313;SDS011;5712;48.858;9.206;2022-10-15T10:23:32;0.90;;;0.87;;
11313;SDS011;5712;48.858;9.206;2022-10-15T10:26:00;0.60;;;0.60;;
11313;SDS011;5712;48.858;9.206;2022-10-15T10:28:31;0.70;;;0.67;;
11313;SDS011;5712;48.858;9.206;2022-10-15T10:31:01;1.40;;;0.70;;
11313;SDS011;5712;48.858;9.206;2022-10-15T10:33:31;0.93;;;0.90;;
11313;SDS011;5712;48.858;9.206;2022-10-15T10:36:01;0.90;;;0.90;;
11313;SDS011;5712;48.858;9.206;2022-10-15T10:38:29;1.23;;;0.73;;
11313;SDS011;5712;48.858;9.206;2022-10-15T10:41:00;1.47;;;0.60;;
11313;SDS011;5712;48.858;9.206;2022-10-15T10:43:31;0.47;;;0.47;;
11313;SDS011;5712;48.858;9.206;2022-10-15T10:46:00;0.50;;;0.50;;
11313;SDS011;5712;48.858;9.206;2022-10-15T10:55:28;1.70;;;0.40;;
11313;SDS011;5712;48.858;9.206;2022-10-15T10:58:39;1.07;;;0.50;;
11313;SDS011;5712;48.858;9.206;2022-10-15T11:01:08;0.40;;;0.40;;
11313;SDS011;5712;48.858;9.206;2022-10-15T11:03:40;1.17;;;0.50;;
11313;SDS011;5712;48.858;9.206;2022-10-15T11:09:16;1.57;;;0.50;;
11313;SDS011;5712;48.858;9.206;2022-10-15T11:11:59;0.50;;;0.50;;
11313;SDS011;5712;48.858;9.206;2022-10-15T11:14:38;0.70;;;0.63;;
11313;SDS011;5712;48.858;9.206;2022-10-15T11:17:14;2.20;;;0.53;;
11313;SDS011;5712;48.858;9.206;2022-10-15T11:19:50;2.17;;;0.50;;
11313;SDS011;5712;48.858;9.206;2022-10-15T11:22:28;0.50;;;0.50;;
11313;SDS011;5712;48.858;9.206;2022-10-15T11:25:13;1.50;;;0.50;;
11313;SDS011;5712;48.858;9.206;2022-10-15T11:27:52;1.43;;;0.67;;
11313;SDS011;5712;48.858;9.206;2022-10-15T11:30:33;2.73;;;0.70;;
11313;SDS011;5712;48.858;9.206;2022-10-15T11:33:14;0.77;;;0.70;;
11313;SDS011;5712;48.858;9.206;2022-10-15T11:35:52;0.63;;;0.50;;
11313;SDS011;5712;48.858;9.206;2022-10-15T11:38:29;0.87;;;0.60;;
11313;SDS011;5712;48.858;9.206;2022-10-15T11:41:08;1.90;;;0.50;;
11313;SDS011;5712;48.858;9.206;2022-10-15T11:43:52;2.37;;;0.60;;
11313;SDS011;5712;48.858;9.206;2022-10-15T11:46:26;1.33;;;0.60;;
11313;SDS011;5712;48.858;9.206;2022-10-15T11:49:03;1.77;;;0.60;;
11313;SDS011;5712;48.858;9.206;2022-10-15T11:51:48;0.87;;;0.60;;
11313;SDS011;5712;48.858;9.206;2022-10-15T11:54:42;0.63;;;0.60;;
11313;SDS011;5712;48.858;9.206;2022-10-15T11:57:13;0.97;;;0.70;;
11313;SDS011;5712;48.858;9.206;2022-10-15T11:59:46;3.13;;;0.67;;
11313;SDS011;5712;48.858;9.206;2022-10-15T12:02:19;0.70;;;0.70;;
11313;SDS011;5712;48.858;9.206;2022-10-15T12:04:49;3.27;;;0.80;;
11313;SDS011;5712;48.858;9.206;2022-10-15T12:07:21;1.27;;;1.00;;
11313;SDS011;5712;48.858;9.206;2022-10-15T12:09:50;1.97;;;0.70;;
11313;SDS011;5712;48.858;9.206;2022-10-15T12:12:26;2.03;;;0.80;;
11313;SDS011;5712;48.858;9.206;2022-10-15T12:15:05;0.90;;;0.70;;
11313;SDS011;5712;48.858;9.206;2022-10-15T12:17:41;1.70;;;0.87;;
11313;SDS011;5712;48.858;9.206;2022-10-15T12:20:16;1.23;;;0.60;;
11313;SDS011;5712;48.858;9.206;2022-10-15T12:22:55;1.40;;;0.60;;
11313;SDS011;5712;48.858;9.206;2022-10-15T12:28:13;1.90;;;0.60;;
11313;SDS011;5712;48.858;9.206;2022-10-15T12:30:49;0.53;;;0.50;;
11313;SDS011;5712;48.858;9.206;2022-10-15T12:33:23;0.97;;;0.60;;
11313;SDS011;5712;48.858;9.206;2022-10-15T12:35:57;0.80;;;0.60;;
11313;SDS011;5712;48.858;9.206;2022-10-15T12:38:27;1.70;;;1.17;;
11313;SDS011;5712;48.858;9.206;2022-10-15T12:40:57;1.03;;;0.60;;
11313;SDS011;5712;48.858;9.206;2022-10-15T12:43:29;1.67;;;0.70;;
11313;SDS011;5712;48.858;9.206;2022-10-15T12:46:00;1.60;;;0.60;;
11313;SDS011;5712;48.858;9.206;2022-10-15T12:48:29;1.57;;;0.60;;
11313;SDS011;5712;48.858;9.206;2022-10-15T13:00:17;1.10;;;0.60;;
11313;SDS011;5712;48.858;9.206;2022-10-15T13:06:20;1.17;;;0.77;;
11313;SDS011;5712;48.858;9.206;2022-10-15T13:08:56;2.10;;;0.73;;
11313;SDS011;5712;48.858;9.206;2022-10-15T13:11:30;1.00;;;0.50;;
11313;SDS011;5712;48.858;9.206;2022-10-15T13:14:01;1.00;;;0.60;;
11313;SDS011;5712;48.858;9.206;2022-10-15T13:16:41;1.87;;;0.67;;
11313;SDS011;5712;48.858;9.206;2022-10-15T13:19:15;1.53;;;0.70;;
11313;SDS011;5712;48.858;9.206;2022-10-15T13:21:48;0.60;;;0.60;;
11313;SDS011;5712;48.858;9.206;2022-10-15T13:24:19;0.90;;;0.70;;
11313;SDS011;5712;48.858;9.206;2022-10-15T13:26:47;0.63;;;0.63;;
11313;SDS011;5712;48.858;9.206;2022-10-15T13:29:15;0.90;;;0.70;;
11313;SDS011;5712;48.858;9.206;2022-10-15T13:31:42;0.70;;;0.70;;
11313;SDS011;5712;48.858;9.206;2022-10-15T13:34:13;0.90;;;0.77;;
11313;SDS011;5712;48.858;9.206;2022-10-15T13:36:45;2.00;;;0.80;;
11313;SDS011;5712;48.858;9.206;2022-10-15T13:39:21;1.10;;;0.70;;
11313;SDS011;5712;48.858;9.206;2022-10-15T13:41:52;1.03;;;0.73;;
11313;SDS011;5712;48.858;9.206;2022-10-15T13:44:30;1.00;;;0.90;;
11313;SDS011;5712;48.858;9.206;2022-10-15T13:46:56;1.07;;;0.80;;
11313;SDS011;5712;48.858;9.206;2022-10-15T13:49:23;1.63;;;0.90;;
11313;SDS011;5712;48.858;9.206;2022-10-15T13:51:50;1.17;;;1.00;;
11313;SDS011;5712;48.858;9.206;2022-10-15T13:54:19;0.83;;;0.83;;
11313;SDS011;5712;48.858;9.206;2022-10-15T13:56:50;2.37;;;1.00;;
11313;SDS011;5712;48.858;9.206;2022-10-15T13:59:19;0.90;;;0.90;;
11313;SDS011;5712;48.858;9.206;2022-10-15T14:01:47;1.57;;;0.90;;
11313;SDS011;5712;48.858;9.206;2022-10-15T14:04:18;1.53;;;0.80;;
11313;SDS011;5712;48.858;9.206;2022-10-15T14:06:53;1.17;;;1.00;;
11313;SDS011;5712;48.858;9.206;2022-10-15T14:09:28;1.13;;;1.00;;
11313;SDS011;5712;48.858;9.206;2022-10-15T14:11:56;1.23;;;1.07;;
11313;SDS011;5712;48.858;9.206;2022-10-15T14:14:26;3.10;;;1.10;;
11313;SDS011;5712;48.858;9.206;2022-10-15T14:16:55;1.27;;;1.10;;
11313;SDS011;5712;48.858;9.206;2022-10-15T14:19:23;1.10;;;0.83;;
11313;SDS011;5712;48.858;9.206;2022-10-15T14:21:54;1.07;;;0.97;;
11313;SDS011;5712;48.858;9.206;2022-10-15T14:24:21;1.10;;;1.00;;
11313;SDS011;5712;48.858;9.206;2022-10-15T14:26:53;1.57;;;1.00;;
11313;SDS011;5712;48.858;9.206;2022-10-15T14:29:21;1.70;;;0.87;;
11313;SDS011;5712;48.858;9.206;2022-10-15T14:31:51;1.27;;;0.90;;
11313;SDS011;5712;48.858;9.206;2022-10-15T14:34:28;1.63;;;1.07;;
11313;SDS011;5712;48.858;9.206;2022-10-15T14:36:56;2.60;;;1.00;;
11313;SDS011;5712;48.858;9.206;2022-10-15T14:39:27;0.60;;;0.60;;
11313;SDS011;5712;48.858;9.206;2022-10-15T14:41:58;1.30;;;1.00;;
11313;SDS011;5712;48.858;9.206;2022-10-15T14:44:38;3.90;;;1.10;;
11313;SDS011;5712;48.858;9.206;2022-10-15T14:47:09;1.20;;;1.10;;
11313;SDS011;5712;48.858;9.206;2022-10-15T14:49:44;1.93;;;1.30;;
11313;SDS011;5712;48.858;9.206;2022-10-15T14:52:11;3.13;;;1.40;;
11313;SDS011;5712;48.858;9.206;2022-10-15T14:54:45;1.70;;;1.20;;
11313;SDS011;5712;48.858;9.206;2022-10-15T14:57:28;2.17;;;1.20;;
11313;SDS011;5712;48.858;9.206;2022-10-15T14:59:59;1.20;;;1.10;;
11313;SDS011;5712;48.858;9.206;2022-10-15T15:02:27;1.33;;;1.23;;
11313;SDS011;5712;48.858;9.206;2022-10-15T15:05:04;2.00;;;1.30;;
11313;SDS011;5712;48.858;9.206;2022-10-15T15:07:34;2.07;;;1.30;;
11313;SDS011;5712;48.858;9.206;2022-10-15T15:10:01;1.67;;;1.30;;
11313;SDS011;5712;48.858;9.206;2022-10-15T15:12:30;1.67;;;1.23;;
11313;SDS011;5712;48.858;9.206;2022-10-15T15:14:57;1.90;;;1.20;;
11313;SDS011;5712;48.858;9.206;2022-10-15T15:17:25;1.33;;;1.10;;
11313;SDS011;5712;48.858;9.206;2022-10-15T15:19:55;2.83;;;1.00;;
11313;SDS011;5712;48.858;9.206;2022-10-15T15:22:24;3.03;;;1.00;;
11313;SDS011;5712;48.858;9.206;2022-10-15T15:24:53;2.17;;;1.40;;
11313;SDS011;5712;48.858;9.206;2022-10-15T15:27:22;1.67;;;1.07;;
11313;SDS011;5712;48.858;9.206;2022-10-15T15:29:52;1.00;;;0.90;;
11313;SDS011;5712;48.858;9.206;2022-10-15T15:32:20;1.93;;;1.40;;
11313;SDS011;5712;48.858;9.206;2022-10-15T15:34:48;2.43;;;1.17;;
11313;SDS011;5712;48.858;9.206;2022-10-15T15:37:16;1.40;;;1.30;;
11313;SDS011;5712;48.858;9.206;2022-10-15T15:39:44;2.83;;;1.20;;
11313;SDS011;5712;48.858;9.206;2022-10-15T15:42:12;1.30;;;1.20;;
11313;SDS011;5712;48.858;9.206;2022-10-15T15:44:41;1.57;;;1.20;;
11313;SDS011;5712;48.858;9.206;2022-10-15T15:47:09;1.33;;;1.10;;
11313;SDS011;5712;48.858;9.206;2022-10-15T15:49:36;1.97;;;1.20;;
11313;SDS011;5712;48.858;9.206;2022-10-15T15:52:04;1.20;;;1.00;;